Time,TemperatureF,DewpointF,PressureIn,WindDirection,WindDirectionDegrees,WindSpeedMPH,WindSpeedGustMPH,Humidity,HourlyPrecipIn,Conditions,Clouds,dailyrainin,SoftwareType,DateUTC
2013-04-08 00:00:00,71.8,58.1,29.68,West,270,0.7,1.6,62,0.00,,,0.00,WUHU216HW,2013-04-07 21:00:00,
2013-04-08 00:05:00,71.8,58.1,29.67,WNW,293,1.8,1.8,62,0.00,,,0.00,WUHU216HW,2013-04-07 21:05:00,
2013-04-08 00:10:00,71.6,58.0,29.67,WNW,293,1.3,1.8,62,0.00,,,0.00,WUHU216HW,2013-04-07 21:10:00,
2013-04-08 00:15:00,71.6,58.0,29.67,WNW,293,0.0,1.8,62,0.00,,,0.00,WUHU216HW,2013-04-07 21:15:00,
2013-04-08 00:20:00,71.6,58.0,29.67,WNW,293,0.0,1.8,62,0.00,,,0.00,WUHU216HW,2013-04-07 21:20:00,
2013-04-08 00:25:00,71.6,58.0,29.67,WNW,293,0.0,0.2,62,0.00,,,0.00,WUHU216HW,2013-04-07 21:25:00,
2013-04-08 00:30:00,71.8,58.1,29.67,WNW,293,0.7,0.7,62,0.00,,,0.00,WUHU216HW,2013-04-07 21:30:00,
2013-04-08 00:35:00,71.8,58.1,29.67,WNW,293,0.0,0.9,62,0.00,,,0.00,WUHU216HW,2013-04-07 21:35:00,
2013-04-08 00:40:00,71.8,57.7,29.67,WNW,293,0.0,0.9,61,0.00,,,0.00,WUHU216HW,2013-04-07 21:40:00,
2013-04-08 00:45:00,72.0,58.2,29.66,ENE,68,1.1,1.3,62,0.00,,,0.00,WUHU216HW,2013-04-07 21:45:00,
2013-04-08 00:50:00,72.2,58.0,29.66,ENE,68,1.1,1.3,61,0.00,,,0.00,WUHU216HW,2013-04-07 21:50:00,
2013-04-08 00:55:00,72.0,57.8,29.66,ENE,68,0.0,1.1,61,0.00,,,0.00,WUHU216HW,2013-04-07 21:55:00,
2013-04-08 01:00:00,72.2,58.0,29.66,SSE,158,0.9,1.1,61,0.00,,,0.00,WUHU216HW,2013-04-07 22:00:00,
2013-04-08 01:05:00,72.0,57.4,29.66,South,180,0.0,1.3,60,0.00,,,0.00,WUHU216HW,2013-04-07 22:05:00,
2013-04-08 01:10:00,72.0,57.4,29.66,SSW,203,0.4,1.3,60,0.00,,,0.00,WUHU216HW,2013-04-07 22:10:00,
2013-04-08 01:15:00,72.0,57.4,29.65,SSW,203,0.7,1.8,60,0.00,,,0.00,WUHU216HW,2013-04-07 22:15:00,
2013-04-08 01:21:00,72.0,57.4,29.65,SW,225,1.6,1.8,60,0.00,,,0.00,WUHU216HW,2013-04-07 22:21:00,
2013-04-08 01:26:00,71.8,57.3,29.65,SW,225,2.2,2.7,60,0.00,,,0.00,WUHU216HW,2013-04-07 22:26:00,
2013-04-08 01:31:00,71.6,57.1,29.65,SSW,203,1.3,3.1,60,0.00,,,0.00,WUHU216HW,2013-04-07 22:31:00,
2013-04-08 01:36:00,71.5,57.3,29.65,SSW,203,1.8,3.1,61,0.00,,,0.00,WUHU216HW,2013-04-07 22:36:00,
2013-04-08 01:41:00,71.5,57.3,29.65,SSE,158,2.5,2.5,61,0.00,,,0.00,WUHU216HW,2013-04-07 22:41:00,
2013-04-08 01:46:00,71.6,57.5,29.65,South,180,1.8,3.6,61,0.00,,,0.00,WUHU216HW,2013-04-07 22:46:00,
2013-04-08 01:51:00,71.5,57.3,29.65,SSE,158,2.2,4.0,61,0.00,,,0.00,WUHU216HW,2013-04-07 22:51:00,
2013-04-08 01:56:00,71.3,57.2,29.64,SSW,203,1.6,4.0,61,0.00,,,0.00,WUHU216HW,2013-04-07 22:56:00,
2013-04-08 02:01:00,70.9,56.9,29.64,SW,225,3.8,3.8,61,0.00,,,0.00,WUHU216HW,2013-04-07 23:01:00,
2013-04-08 02:06:00,70.9,56.9,29.64,SW,225,1.8,4.0,61,0.00,,,0.00,WUHU216HW,2013-04-07 23:06:00,
2013-04-08 02:11:00,70.6,56.5,29.64,WSW,248,4.5,5.6,61,0.00,,,0.00,WUHU216HW,2013-04-07 23:11:00,
2013-04-08 02:16:00,70.2,56.6,29.64,WSW,248,2.2,5.6,62,0.00,,,0.00,WUHU216HW,2013-04-07 23:16:00,
2013-04-08 02:21:00,70.2,56.6,29.64,West,270,4.7,5.4,62,0.00,,,0.00,WUHU216HW,2013-04-07 23:21:00,
2013-04-08 02:26:00,69.7,56.5,29.64,WSW,248,3.4,5.8,63,0.00,,,0.00,WUHU216HW,2013-04-07 23:26:00,
2013-04-08 02:31:00,69.5,56.4,29.64,WSW,248,5.4,6.7,63,0.00,,,0.00,WUHU216HW,2013-04-07 23:31:00,
2013-04-08 02:37:00,69.1,56.4,29.64,SSW,203,3.1,7.6,64,0.00,,,0.00,WUHU216HW,2013-04-07 23:37:00,
2013-04-08 02:42:00,68.8,56.1,29.64,SW,225,2.5,7.6,64,0.00,,,0.00,WUHU216HW,2013-04-07 23:42:00,
2013-04-08 02:47:00,68.6,55.9,29.64,SSW,203,2.2,5.6,64,0.00,,,0.00,WUHU216HW,2013-04-07 23:47:00,
2013-04-08 02:52:00,68.8,56.1,29.64,WSW,248,2.7,4.3,64,0.00,,,0.00,WUHU216HW,2013-04-07 23:52:00,
2013-04-08 02:57:00,68.8,56.1,29.65,WSW,248,1.6,4.3,64,0.00,,,0.00,WUHU216HW,2013-04-07 23:57:00,
2013-04-08 03:02:00,68.8,56.1,29.65,WSW,248,1.8,3.1,64,0.00,,,0.00,WUHU216HW,2013-04-08 00:02:00,
2013-04-08 03:07:00,68.8,56.1,29.65,West,270,2.2,2.5,64,0.00,,,0.00,WUHU216HW,2013-04-08 00:07:00,
2013-04-08 03:12:00,68.8,56.1,29.65,WSW,248,2.5,2.5,64,0.00,,,0.00,WUHU216HW,2013-04-08 00:12:00,
2013-04-08 03:17:00,68.8,56.1,29.65,SSW,203,1.6,2.7,64,0.00,,,0.00,WUHU216HW,2013-04-08 00:17:00,
2013-04-08 03:22:00,68.8,56.1,29.65,SW,225,0.9,2.7,64,0.00,,,0.00,WUHU216HW,2013-04-08 00:22:00,
2013-04-08 03:27:00,68.9,56.3,29.65,West,270,1.3,1.8,64,0.00,,,0.00,WUHU216HW,2013-04-08 00:27:00,
2013-04-08 03:32:00,68.8,55.6,29.65,WNW,293,2.5,2.5,63,0.00,,,0.00,WUHU216HW,2013-04-08 00:32:00,
2013-04-08 03:37:00,68.6,55.4,29.65,WSW,248,2.0,2.9,63,0.00,,,0.00,WUHU216HW,2013-04-08 00:37:00,
2013-04-08 03:42:00,68.6,55.4,29.65,WSW,248,1.8,3.1,63,0.00,,,0.00,WUHU216HW,2013-04-08 00:42:00,
2013-04-08 03:47:00,68.6,55.4,29.65,WSW,248,0.9,3.1,63,0.00,,,0.00,WUHU216HW,2013-04-08 00:47:00,
2013-04-08 03:52:00,68.8,55.6,29.65,SW,225,2.5,2.7,63,0.00,,,0.00,WUHU216HW,2013-04-08 00:52:00,
2013-04-08 03:57:00,68.8,55.6,29.66,WSW,248,2.9,2.9,63,0.00,,,0.00,WUHU216HW,2013-04-08 00:57:00,
2013-04-08 04:02:00,68.6,55.0,29.65,SSW,203,2.2,3.8,62,0.00,,,0.00,WUHU216HW,2013-04-08 01:02:00,
2013-04-08 04:08:00,68.8,55.2,29.66,SSW,203,2.7,3.8,62,0.00,,,0.00,WUHU216HW,2013-04-08 01:08:00,
2013-04-08 04:12:00,68.8,55.2,29.66,WSW,248,2.0,3.4,62,0.00,,,0.00,WUHU216HW,2013-04-08 01:12:00,
2013-04-08 04:18:00,68.6,55.0,29.66,SW,225,3.4,3.4,62,0.00,,,0.00,WUHU216HW,2013-04-08 01:18:00,
2013-04-08 04:23:00,68.4,54.9,29.66,West,270,2.5,5.8,62,0.00,,,0.00,WUHU216HW,2013-04-08 01:23:00,
2013-04-08 04:27:00,68.4,55.3,29.66,WSW,248,1.6,5.8,63,0.00,,,0.00,WUHU216HW,2013-04-08 01:27:00,
2013-04-08 04:33:00,68.4,55.3,29.66,SW,225,5.4,5.4,63,0.00,,,0.00,WUHU216HW,2013-04-08 01:33:00,
2013-04-08 04:38:00,68.0,54.6,29.66,West,270,1.8,6.0,62,0.00,,,0.00,WUHU216HW,2013-04-08 01:38:00,
2013-04-08 04:43:00,68.0,54.9,29.66,West,270,4.5,6.0,63,0.00,,,0.00,WUHU216HW,2013-04-08 01:43:00,
2013-04-08 04:48:00,67.9,54.8,29.66,SW,225,3.4,4.7,63,0.00,,,0.00,WUHU216HW,2013-04-08 01:48:00,
2013-04-08 04:53:00,67.9,54.8,29.66,WSW,248,2.5,5.1,63,0.00,,,0.00,WUHU216HW,2013-04-08 01:53:00,
2013-04-08 04:58:00,67.9,54.8,29.66,SW,225,2.9,5.1,63,0.00,,,0.00,WUHU216HW,2013-04-08 01:58:00,
2013-04-08 05:03:00,67.9,54.8,29.67,WSW,248,2.9,5.1,63,0.00,,,0.00,WUHU216HW,2013-04-08 02:03:00,
2013-04-08 05:08:00,67.9,54.8,29.67,WSW,248,3.1,5.1,63,0.00,,,0.00,WUHU216HW,2013-04-08 02:08:00,
2013-04-08 05:13:00,67.9,54.8,29.67,SW,225,3.8,5.1,63,0.00,,,0.00,WUHU216HW,2013-04-08 02:13:00,
2013-04-08 05:18:00,67.9,54.8,29.68,SW,225,2.7,4.7,63,0.00,,,0.00,WUHU216HW,2013-04-08 02:18:00,
2013-04-08 05:23:00,67.9,54.8,29.68,SW,225,1.1,4.7,63,0.00,,,0.00,WUHU216HW,2013-04-08 02:23:00,
2013-04-08 05:28:00,68.0,54.6,29.68,SW,225,2.5,2.9,62,0.00,,,0.00,WUHU216HW,2013-04-08 02:28:00,
2013-04-08 05:33:00,68.0,54.6,29.68,SSW,203,1.8,3.4,62,0.00,,,0.00,WUHU216HW,2013-04-08 02:33:00,
2013-04-08 05:38:00,68.0,54.6,29.68,SW,225,1.8,3.4,62,0.00,,,0.00,WUHU216HW,2013-04-08 02:38:00,
2013-04-08 05:43:00,68.2,54.7,29.68,WSW,248,2.0,3.4,62,0.00,,,0.00,WUHU216HW,2013-04-08 02:43:00,
2013-04-08 05:48:00,68.2,54.7,29.68,WSW,248,3.1,4.0,62,0.00,,,0.00,WUHU216HW,2013-04-08 02:48:00,
2013-04-08 05:54:00,68.2,54.7,29.68,SW,225,4.0,4.3,62,0.00,,,0.00,WUHU216HW,2013-04-08 02:54:00,
2013-04-08 05:59:00,68.4,54.5,29.69,SW,225,4.5,4.7,61,0.00,,,0.00,WUHU216HW,2013-04-08 02:59:00,
2013-04-08 06:05:00,68.6,54.6,29.69,WSW,248,2.2,4.7,61,0.00,,,0.00,WUHU216HW,2013-04-08 03:05:00,
2013-04-08 06:10:00,68.8,55.2,29.69,WSW,248,4.5,5.4,62,0.00,,,0.00,WUHU216HW,2013-04-08 03:10:00,
2013-04-08 06:15:00,69.1,55.5,29.69,South,180,4.0,5.4,62,0.00,,,0.00,WUHU216HW,2013-04-08 03:15:00,
2013-04-08 06:20:00,69.3,56.2,29.69,WSW,248,2.0,5.1,63,0.00,,,0.00,WUHU216HW,2013-04-08 03:20:00,
2013-04-08 06:25:00,69.7,56.5,29.69,WSW,248,4.0,4.7,63,0.00,,,0.00,WUHU216HW,2013-04-08 03:25:00,
2013-04-08 06:30:00,69.8,56.3,29.70,SW,225,3.1,5.4,62,0.00,,,0.00,WUHU216HW,2013-04-08 03:30:00,
2013-04-08 06:35:00,70.2,56.2,29.69,SW,225,3.8,5.4,61,0.00,,,0.00,WUHU216HW,2013-04-08 03:35:00,
2013-04-08 06:40:00,70.4,56.3,29.70,WSW,248,2.0,4.9,61,0.00,,,0.00,WUHU216HW,2013-04-08 03:40:00,
2013-04-08 06:46:00,70.7,56.7,29.71,SSW,203,3.8,4.5,61,0.00,,,0.00,WUHU216HW,2013-04-08 03:46:00,
2013-04-08 06:51:00,70.9,57.2,29.71,SW,225,1.8,5.4,62,0.00,,,0.00,WUHU216HW,2013-04-08 03:51:00,
2013-04-08 06:56:00,70.9,56.9,29.71,SW,225,5.1,5.4,61,0.00,,,0.00,WUHU216HW,2013-04-08 03:56:00,
2013-04-08 07:00:00,70.9,56.9,29.72,WSW,248,2.0,5.4,61,0.00,,,0.00,WUHU216HW,2013-04-08 04:00:00,
2013-04-08 07:05:00,70.9,56.9,29.72,WSW,248,3.4,5.6,61,0.00,,,0.00,WUHU216HW,2013-04-08 04:05:00,
2013-04-08 07:10:00,70.9,56.9,29.72,SW,225,1.8,5.6,61,0.00,,,0.00,WUHU216HW,2013-04-08 04:10:00,
2013-04-08 07:15:00,71.1,57.9,29.72,SW,225,5.6,6.0,63,0.00,,,0.00,WUHU216HW,2013-04-08 04:15:00,
2013-04-08 07:20:00,70.9,57.7,29.72,SSW,203,7.2,7.2,63,0.00,,,0.00,WUHU216HW,2013-04-08 04:20:00,
2013-04-08 07:25:00,71.1,57.9,29.73,West,270,3.4,7.2,63,0.00,,,0.00,WUHU216HW,2013-04-08 04:25:00,
2013-04-08 07:30:00,71.3,58.1,29.73,South,180,2.2,7.2,63,0.00,,,0.00,WUHU216HW,2013-04-08 04:30:00,
2013-04-08 07:35:00,71.8,58.5,29.73,South,180,2.0,5.6,63,0.00,,,0.00,WUHU216HW,2013-04-08 04:35:00,
2013-04-08 07:40:00,72.4,59.1,29.73,SW,225,1.8,4.0,63,0.00,,,0.00,WUHU216HW,2013-04-08 04:40:00,
2013-04-08 07:45:00,72.9,59.0,29.73,SSW,203,2.9,4.0,62,0.00,,,0.00,WUHU216HW,2013-04-08 04:45:00,
2013-04-08 07:50:00,73.3,59.0,29.73,SW,225,3.1,4.0,61,0.00,,,0.00,WUHU216HW,2013-04-08 04:50:00,
2013-04-08 07:55:00,73.3,58.1,29.74,SSW,203,3.1,4.9,59,0.00,,,0.00,WUHU216HW,2013-04-08 04:55:00,
2013-04-08 08:00:00,73.3,58.1,29.73,SW,225,2.9,5.1,59,0.00,,,0.00,WUHU216HW,2013-04-08 05:00:00,
2013-04-08 08:05:00,73.4,57.7,29.74,West,270,1.1,5.1,58,0.00,,,0.00,WUHU216HW,2013-04-08 05:05:00,
2013-04-08 08:10:00,73.8,57.5,29.74,SW,225,4.0,5.4,57,0.00,,,0.00,WUHU216HW,2013-04-08 05:10:00,
2013-04-08 08:15:00,74.2,57.9,29.74,South,180,2.5,5.4,57,0.00,,,0.00,WUHU216HW,2013-04-08 05:15:00,
2013-04-08 08:20:00,74.5,57.8,29.74,South,180,1.8,3.8,56,0.00,,,0.00,WUHU216HW,2013-04-08 05:20:00,
2013-04-08 08:25:00,74.9,58.2,29.74,WSW,248,3.4,5.1,56,0.00,,,0.00,WUHU216HW,2013-04-08 05:25:00,
2013-04-08 08:30:00,74.9,57.6,29.74,SW,225,2.5,5.4,55,0.00,,,0.00,WUHU216HW,2013-04-08 05:30:00,
2013-04-08 08:35:00,75.1,57.8,29.74,SSW,203,4.5,6.3,55,0.00,,,0.00,WUHU216HW,2013-04-08 05:35:00,
2013-04-08 08:40:00,75.4,58.2,29.74,SW,225,1.8,6.3,55,0.00,,,0.00,WUHU216HW,2013-04-08 05:40:00,
2013-04-08 08:45:00,75.6,57.8,29.74,West,270,2.0,5.6,54,0.00,,,0.00,WUHU216HW,2013-04-08 05:45:00,
2013-04-08 08:50:00,76.1,58.2,29.74,SSW,203,1.3,5.8,54,0.00,,,0.00,WUHU216HW,2013-04-08 05:50:00,
2013-04-08 08:55:00,76.7,58.2,29.74,SSE,158,0.9,5.8,53,0.00,,,0.00,WUHU216HW,2013-04-08 05:55:00,
2013-04-08 09:09:00,78.1,58.1,29.74,SSW,203,1.1,3.8,50,0.00,,,0.00,WUHU216HW,2013-04-08 06:09:00,
2013-04-08 09:14:00,78.5,57.8,29.74,SSW,203,2.5,4.3,49,0.00,,,0.00,WUHU216HW,2013-04-08 06:14:00,
2013-04-08 09:19:00,78.3,57.6,29.74,SSW,203,0.2,4.3,49,0.00,,,0.00,WUHU216HW,2013-04-08 06:19:00,
2013-04-08 09:24:00,78.7,57.3,29.74,SW,225,2.9,4.3,48,0.00,,,0.00,WUHU216HW,2013-04-08 06:24:00,
2013-04-08 09:29:00,78.8,57.4,29.74,East,90,4.7,4.7,48,0.00,,,0.00,WUHU216HW,2013-04-08 06:29:00,
2013-04-08 09:34:00,79.4,60.8,29.74,ESE,113,4.3,6.9,53,0.00,,,0.00,WUHU216HW,2013-04-08 06:34:00,
2013-04-08 09:39:00,79.7,60.6,29.74,SE,135,4.7,6.9,52,0.00,,,0.00,WUHU216HW,2013-04-08 06:39:00,
2013-04-08 09:44:00,80.3,60.5,29.74,ENE,68,6.3,6.3,51,0.00,,,0.00,WUHU216HW,2013-04-08 06:44:00,
2013-04-08 09:49:00,80.5,60.7,29.73,ESE,113,2.9,6.3,51,0.00,,,0.00,WUHU216HW,2013-04-08 06:49:00,
2013-04-08 09:54:00,80.5,60.1,29.73,SSE,158,4.7,5.6,50,0.00,,,0.00,WUHU216HW,2013-04-08 06:54:00,
2013-04-08 09:59:00,80.6,60.9,29.73,SSE,158,4.3,5.4,51,0.00,,,0.00,WUHU216HW,2013-04-08 06:59:00,
2013-04-08 10:04:00,80.6,60.3,29.73,SE,135,4.0,6.3,50,0.00,,,0.00,WUHU216HW,2013-04-08 07:04:00,
2013-04-08 10:10:00,80.6,60.3,29.73,SE,135,3.4,6.5,50,0.00,,,0.00,WUHU216HW,2013-04-08 07:10:00,
2013-04-08 10:15:00,80.8,59.9,29.73,SSE,158,4.7,6.7,49,0.00,,,0.00,WUHU216HW,2013-04-08 07:15:00,
2013-04-08 10:20:00,80.8,60.5,29.73,SE,135,3.4,6.7,50,0.00,,,0.00,WUHU216HW,2013-04-08 07:20:00,
2013-04-08 10:25:00,81.0,60.7,29.73,ESE,113,5.6,6.3,50,0.00,,,0.00,WUHU216HW,2013-04-08 07:25:00,
2013-04-08 10:30:00,81.2,61.3,29.73,SE,135,3.4,7.2,51,0.00,,,0.00,WUHU216HW,2013-04-08 07:30:00,
2013-04-08 10:35:00,81.0,62.2,29.72,SE,135,7.4,8.5,53,0.00,,,0.00,WUHU216HW,2013-04-08 07:35:00,
2013-04-08 10:40:00,81.0,62.7,29.72,SE,135,5.1,8.5,54,0.00,,,0.00,WUHU216HW,2013-04-08 07:40:00,
2013-04-08 10:45:00,80.6,63.5,29.72,ESE,113,7.6,9.4,56,0.00,,,0.00,WUHU216HW,2013-04-08 07:45:00,
2013-04-08 10:50:00,80.3,63.6,29.72,ESE,113,9.8,9.8,57,0.00,,,0.00,WUHU216HW,2013-04-08 07:50:00,
2013-04-08 10:55:00,80.3,64.7,29.72,ESE,113,6.0,9.8,59,0.00,,,0.00,WUHU216HW,2013-04-08 07:55:00,
2013-04-08 11:00:00,80.6,65.0,29.72,SE,135,5.6,9.8,59,0.00,,,0.00,WUHU216HW,2013-04-08 08:00:00,
2013-04-08 11:05:00,80.6,64.0,29.72,SE,135,6.0,8.7,57,0.00,,,0.00,WUHU216HW,2013-04-08 08:05:00,
2013-04-08 11:10:00,80.6,64.4,29.72,SE,135,6.3,8.1,58,0.00,,,0.00,WUHU216HW,2013-04-08 08:10:00,
2013-04-08 11:16:00,80.8,64.6,29.71,SE,135,3.8,8.3,58,0.00,,,0.00,WUHU216HW,2013-04-08 08:16:00,
2013-04-08 11:21:00,81.0,65.4,29.71,SE,135,2.9,8.3,59,0.00,,,0.00,WUHU216HW,2013-04-08 08:21:00,
2013-04-08 11:26:00,81.0,64.8,29.71,SE,135,7.4,8.3,58,0.00,,,0.00,WUHU216HW,2013-04-08 08:26:00,
2013-04-08 11:31:00,81.4,65.2,29.71,SE,135,6.5,7.6,58,0.00,,,0.00,WUHU216HW,2013-04-08 08:31:00,
2013-04-08 11:36:00,81.0,64.3,29.71,SSE,158,6.9,8.5,57,0.00,,,0.00,WUHU216HW,2013-04-08 08:36:00,
2013-04-08 11:41:00,81.0,65.4,29.71,SE,135,6.7,8.5,59,0.00,,,0.00,WUHU216HW,2013-04-08 08:41:00,
2013-04-08 11:46:00,81.4,65.6,29.71,SSE,158,8.1,8.1,59,0.00,,,0.00,WUHU216HW,2013-04-08 08:46:00,
2013-04-08 11:51:00,81.5,65.8,29.71,SE,135,4.9,8.1,59,0.00,,,0.00,WUHU216HW,2013-04-08 08:51:00,
2013-04-08 11:56:00,81.4,65.2,29.70,SSE,158,7.6,8.1,58,0.00,,,0.00,WUHU216HW,2013-04-08 08:56:00,
2013-04-08 12:02:00,81.4,65.2,29.70,ESE,113,6.0,8.9,58,0.00,,,0.00,WUHU216HW,2013-04-08 09:02:00,
2013-04-08 12:07:00,81.5,65.8,29.70,SE,135,5.8,8.9,59,0.00,,,0.00,WUHU216HW,2013-04-08 09:07:00,
2013-04-08 12:12:00,81.5,65.3,29.70,SE,135,7.6,8.5,58,0.00,,,0.00,WUHU216HW,2013-04-08 09:12:00,
2013-04-08 12:17:00,81.4,65.2,29.70,ESE,113,6.9,8.5,58,0.00,,,0.00,WUHU216HW,2013-04-08 09:17:00,
2013-04-08 12:22:00,81.7,66.0,29.70,SSE,158,5.4,8.5,59,0.00,,,0.00,WUHU216HW,2013-04-08 09:22:00,
2013-04-08 12:27:00,81.7,66.0,29.70,ESE,113,5.8,7.8,59,0.00,,,0.00,WUHU216HW,2013-04-08 09:27:00,
2013-04-08 12:32:00,81.9,66.2,29.70,ENE,68,6.3,7.8,59,0.00,,,0.00,WUHU216HW,2013-04-08 09:32:00,
2013-04-08 12:37:00,81.9,65.6,29.69,SE,135,4.7,9.4,58,0.00,,,0.00,WUHU216HW,2013-04-08 09:37:00,
2013-04-08 12:42:00,81.7,65.4,29.69,ESE,113,5.8,9.4,58,0.00,,,0.00,WUHU216HW,2013-04-08 09:42:00,
2013-04-08 12:47:00,81.5,65.3,29.69,ESE,113,4.3,10.1,58,0.00,,,0.00,WUHU216HW,2013-04-08 09:47:00,
2013-04-08 12:52:00,81.7,66.0,29.69,ESE,113,5.1,10.1,59,0.00,,,0.00,WUHU216HW,2013-04-08 09:52:00,
2013-04-08 12:57:00,81.7,66.0,29.69,ESE,113,4.5,9.2,59,0.00,,,0.00,WUHU216HW,2013-04-08 09:57:00,
2013-04-08 13:02:00,81.9,65.6,29.69,SE,135,5.4,8.9,58,0.00,,,0.00,WUHU216HW,2013-04-08 10:02:00,
2013-04-08 13:07:00,81.7,64.9,29.69,SE,135,5.6,8.9,57,0.00,,,0.00,WUHU216HW,2013-04-08 10:07:00,
2013-04-08 13:12:00,81.7,65.4,29.69,ENE,68,8.5,8.5,58,0.00,,,0.00,WUHU216HW,2013-04-08 10:12:00,
2013-04-08 13:17:00,82.1,65.8,29.68,East,90,6.7,8.5,58,0.00,,,0.00,WUHU216HW,2013-04-08 10:17:00,
2013-04-08 13:22:00,82.3,65.4,29.68,East,90,8.3,9.4,57,0.00,,,0.00,WUHU216HW,2013-04-08 10:22:00,
2013-04-08 13:27:00,82.3,66.0,29.68,ESE,113,4.7,9.4,58,0.00,,,0.00,WUHU216HW,2013-04-08 10:27:00,
2013-04-08 13:32:00,82.3,66.0,29.68,SE,135,9.2,9.4,58,0.00,,,0.00,WUHU216HW,2013-04-08 10:32:00,
2013-04-08 13:37:00,81.7,65.4,29.68,ENE,68,5.6,9.8,58,0.00,,,0.00,WUHU216HW,2013-04-08 10:37:00,
2013-04-08 13:42:00,82.1,65.8,29.68,East,90,4.7,9.8,58,0.00,,,0.00,WUHU216HW,2013-04-08 10:42:00,
2013-04-08 13:47:00,82.3,66.0,29.68,ESE,113,4.0,9.2,58,0.00,,,0.00,WUHU216HW,2013-04-08 10:47:00,
2013-04-08 13:52:00,82.6,65.8,29.68,NNE,23,5.6,8.3,57,0.00,,,0.00,WUHU216HW,2013-04-08 10:52:00,
2013-04-08 13:57:00,82.6,66.2,29.68,ESE,113,3.4,8.5,58,0.00,,,0.00,WUHU216HW,2013-04-08 10:57:00,
2013-04-08 14:03:00,82.4,65.6,29.68,SSE,158,4.7,8.5,57,0.00,,,0.00,WUHU216HW,2013-04-08 11:03:00,
2013-04-08 14:08:00,82.6,66.2,29.68,ENE,68,7.2,8.9,58,0.00,,,0.00,WUHU216HW,2013-04-08 11:08:00,
2013-04-08 14:12:00,82.4,66.6,29.67,SE,135,4.3,8.9,59,0.00,,,0.00,WUHU216HW,2013-04-08 11:12:00,
2013-04-08 14:17:00,83.0,66.6,29.67,SE,135,6.3,8.1,58,0.00,,,0.00,WUHU216HW,2013-04-08 11:17:00,
2013-04-08 14:22:00,82.8,67.0,29.67,ESE,113,6.0,8.1,59,0.00,,,0.00,WUHU216HW,2013-04-08 11:22:00,
2013-04-08 14:27:00,82.8,64.9,29.67,SSE,158,5.4,8.1,55,0.00,,,0.00,WUHU216HW,2013-04-08 11:27:00,
2013-04-08 14:32:00,82.6,64.2,29.67,SE,135,5.4,7.6,54,0.00,,,0.00,WUHU216HW,2013-04-08 11:32:00,
2013-04-08 14:38:00,82.4,65.6,29.67,South,180,4.3,7.8,57,0.00,,,0.00,WUHU216HW,2013-04-08 11:38:00,
2013-04-08 14:42:00,82.8,66.0,29.67,ENE,68,5.8,7.8,57,0.00,,,0.00,WUHU216HW,2013-04-08 11:42:00,
2013-04-08 14:47:00,82.4,66.1,29.67,ESE,113,4.0,9.4,58,0.00,,,0.00,WUHU216HW,2013-04-08 11:47:00,
2013-04-08 14:53:00,82.8,66.0,29.67,SSE,158,3.6,9.4,57,0.00,,,0.00,WUHU216HW,2013-04-08 11:53:00,
2013-04-08 14:58:00,82.8,66.0,29.66,NNE,23,4.0,8.3,57,0.00,,,0.00,WUHU216HW,2013-04-08 11:58:00,
2013-04-08 15:03:00,82.4,64.5,29.66,ENE,68,7.6,8.3,55,0.00,,,0.00,WUHU216HW,2013-04-08 12:03:00,
2013-04-08 15:08:00,82.4,65.6,29.66,SE,135,5.4,8.3,57,0.00,,,0.00,WUHU216HW,2013-04-08 12:08:00,
2013-04-08 15:13:00,82.4,65.6,29.66,SE,135,5.4,7.6,57,0.00,,,0.00,WUHU216HW,2013-04-08 12:13:00,
2013-04-08 15:18:00,82.4,65.6,29.66,SSE,158,4.7,7.6,57,0.00,,,0.00,WUHU216HW,2013-04-08 12:18:00,
2013-04-08 15:23:00,82.4,66.6,29.66,SSE,158,5.6,8.5,59,0.00,,,0.00,WUHU216HW,2013-04-08 12:23:00,
2013-04-08 15:28:00,81.9,66.2,29.66,SE,135,8.3,10.3,59,0.00,,,0.00,WUHU216HW,2013-04-08 12:28:00,
2013-04-08 15:33:00,81.4,66.2,29.67,South,180,5.4,10.3,60,0.00,,,0.00,WUHU216HW,2013-04-08 12:33:00,
2013-04-08 15:38:00,81.4,65.6,29.67,SE,135,6.3,9.4,59,0.00,,,0.00,WUHU216HW,2013-04-08 12:38:00,
2013-04-08 15:43:00,81.5,66.3,29.67,ESE,113,6.7,8.9,60,0.00,,,0.00,WUHU216HW,2013-04-08 12:43:00,
2013-04-08 15:48:00,81.4,66.6,29.67,SE,135,7.4,8.5,61,0.00,,,0.00,WUHU216HW,2013-04-08 12:48:00,
2013-04-08 15:53:00,81.4,66.2,29.67,ESE,113,5.4,9.8,60,0.00,,,0.00,WUHU216HW,2013-04-08 12:53:00,
2013-04-08 15:58:00,81.2,66.4,29.67,ESE,113,8.7,9.8,61,0.00,,,0.00,WUHU216HW,2013-04-08 12:58:00,
2013-04-08 16:03:00,81.0,66.3,29.67,SE,135,6.9,9.4,61,0.00,,,0.00,WUHU216HW,2013-04-08 13:03:00,
2013-04-08 16:08:00,81.4,66.6,29.67,SE,135,5.8,9.4,61,0.00,,,0.00,WUHU216HW,2013-04-08 13:08:00,
2013-04-08 16:13:00,81.4,66.6,29.67,SSE,158,3.1,6.9,61,0.00,,,0.00,WUHU216HW,2013-04-08 13:13:00,
2013-04-08 16:18:00,81.5,66.8,29.67,ESE,113,4.7,7.6,61,0.00,,,0.00,WUHU216HW,2013-04-08 13:18:00,
2013-04-08 16:23:00,81.2,66.9,29.67,ESE,113,5.4,7.6,62,0.00,,,0.00,WUHU216HW,2013-04-08 13:23:00,
2013-04-08 16:28:00,81.0,66.8,29.68,SE,135,6.0,7.8,62,0.00,,,0.00,WUHU216HW,2013-04-08 13:28:00,
2013-04-08 16:33:00,81.0,66.8,29.68,ESE,113,5.1,7.8,62,0.00,,,0.00,WUHU216HW,2013-04-08 13:33:00,
2013-04-08 16:38:00,81.0,66.3,29.68,ESE,113,6.5,8.7,61,0.00,,,0.00,WUHU216HW,2013-04-08 13:38:00,
2013-04-08 16:43:00,80.6,66.4,29.68,SSE,158,5.1,8.7,62,0.00,,,0.00,WUHU216HW,2013-04-08 13:43:00,
2013-04-08 16:48:00,80.6,66.0,29.69,ENE,68,8.5,9.4,61,0.00,,,0.00,WUHU216HW,2013-04-08 13:48:00,
2013-04-08 16:53:00,80.6,66.0,29.70,East,90,4.0,9.8,61,0.00,,,0.00,WUHU216HW,2013-04-08 13:53:00,
2013-04-08 16:58:00,80.6,66.4,29.69,East,90,7.4,9.8,62,0.00,,,0.00,WUHU216HW,2013-04-08 13:58:00,
2013-04-08 17:03:00,80.5,66.2,29.70,ESE,113,6.9,8.5,62,0.00,,,0.00,WUHU216HW,2013-04-08 14:03:00,
2013-04-08 17:08:00,80.3,66.5,29.70,ESE,113,7.6,9.2,63,0.00,,,0.00,WUHU216HW,2013-04-08 14:08:00,
2013-04-08 17:13:00,80.3,66.5,29.70,NE,45,6.0,9.2,63,0.00,,,0.00,WUHU216HW,2013-04-08 14:13:00,
2013-04-08 17:18:00,79.9,66.6,29.70,East,90,6.7,9.6,64,0.00,,,0.00,WUHU216HW,2013-04-08 14:18:00,
2013-04-08 17:23:00,79.6,66.8,29.70,East,90,4.7,9.6,65,0.00,,,0.00,WUHU216HW,2013-04-08 14:23:00,
2013-04-08 17:28:00,79.6,67.1,29.70,North,0,5.8,7.6,66,0.00,,,0.00,WUHU216HW,2013-04-08 14:28:00,
2013-04-08 17:33:00,79.0,66.7,29.71,East,90,8.5,8.5,66,0.00,,,0.00,WUHU216HW,2013-04-08 14:33:00,
2013-04-08 17:38:00,78.8,66.5,29.71,ENE,68,6.3,8.9,66,0.00,,,0.00,WUHU216HW,2013-04-08 14:38:00,
2013-04-08 17:43:00,78.7,66.3,29.71,East,90,5.8,9.2,66,0.00,,,0.00,WUHU216HW,2013-04-08 14:43:00,
2013-04-08 17:48:00,78.5,66.6,29.71,ENE,68,8.1,9.2,67,0.00,,,0.00,WUHU216HW,2013-04-08 14:48:00,
2013-04-08 17:53:00,78.5,66.6,29.71,East,90,4.7,8.5,67,0.00,,,0.00,WUHU216HW,2013-04-08 14:53:00,
2013-04-08 17:58:00,78.3,66.9,29.71,SE,135,5.4,8.1,68,0.00,,,0.00,WUHU216HW,2013-04-08 14:58:00,
2013-04-08 18:04:00,78.1,67.2,29.71,ESE,113,6.7,8.5,69,0.00,,,0.00,WUHU216HW,2013-04-08 15:04:00,
2013-04-08 18:09:00,77.9,67.0,29.71,East,90,6.5,8.5,69,0.00,,,0.00,WUHU216HW,2013-04-08 15:09:00,
2013-04-08 18:14:00,77.8,66.8,29.71,East,90,7.4,8.5,69,0.00,,,0.00,WUHU216HW,2013-04-08 15:14:00,
2013-04-08 18:19:00,77.8,66.8,29.71,East,90,7.6,8.5,69,0.00,,,0.00,WUHU216HW,2013-04-08 15:19:00,
2013-04-08 18:24:00,77.8,66.3,29.71,East,90,6.5,8.5,68,0.00,,,0.00,WUHU216HW,2013-04-08 15:24:00,
2013-04-08 18:29:00,77.8,66.3,29.72,ESE,113,4.5,8.5,68,0.00,,,0.00,WUHU216HW,2013-04-08 15:29:00,
2013-04-08 18:34:00,77.8,66.3,29.72,SE,135,4.7,8.3,68,0.00,,,0.00,WUHU216HW,2013-04-08 15:34:00,
2013-04-08 18:39:00,77.6,66.3,29.72,East,90,5.1,7.8,68,0.00,,,0.00,WUHU216HW,2013-04-08 15:39:00,
2013-04-08 18:45:00,77.6,66.3,29.72,East,90,4.0,7.4,68,0.00,,,0.00,WUHU216HW,2013-04-08 15:45:00,
2013-04-08 18:50:00,77.6,67.1,29.73,East,90,4.7,6.3,70,0.00,,,0.00,WUHU216HW,2013-04-08 15:50:00,
2013-04-08 18:55:00,77.6,67.1,29.73,ENE,68,5.6,6.3,70,0.00,,,0.00,WUHU216HW,2013-04-08 15:55:00,
2013-04-08 19:00:00,77.6,67.5,29.73,East,90,3.6,6.7,71,0.00,,,0.00,WUHU216HW,2013-04-08 16:00:00,
2013-04-08 19:05:00,77.4,67.0,29.73,East,90,6.0,6.7,70,0.00,,,0.00,WUHU216HW,2013-04-08 16:05:00,
2013-04-08 19:10:00,77.4,66.5,29.73,NE,45,5.8,9.6,69,0.00,,,0.00,WUHU216HW,2013-04-08 16:10:00,
2013-04-08 19:15:00,77.4,66.5,29.73,East,90,8.3,9.6,69,0.00,,,0.00,WUHU216HW,2013-04-08 16:15:00,
2013-04-08 19:20:00,77.2,66.8,29.73,ENE,68,4.9,8.3,70,0.00,,,0.00,WUHU216HW,2013-04-08 16:20:00,
2013-04-08 19:25:00,77.2,66.8,29.73,East,90,5.4,8.3,70,0.00,,,0.00,WUHU216HW,2013-04-08 16:25:00,
2013-04-08 19:30:00,77.0,66.6,29.74,ENE,68,6.5,7.6,70,0.00,,,0.00,WUHU216HW,2013-04-08 16:30:00,
2013-04-08 19:35:00,77.0,67.0,29.74,ENE,68,6.3,7.8,71,0.00,,,0.00,WUHU216HW,2013-04-08 16:35:00,
2013-04-08 19:40:00,77.0,67.0,29.74,ENE,68,6.3,7.8,71,0.00,,,0.00,WUHU216HW,2013-04-08 16:40:00,
2013-04-08 19:45:00,76.9,66.4,29.74,ENE,68,6.5,7.2,70,0.00,,,0.00,WUHU216HW,2013-04-08 16:45:00,
2013-04-08 19:50:00,76.9,66.4,29.74,East,90,6.3,8.1,70,0.00,,,0.00,WUHU216HW,2013-04-08 16:50:00,
2013-04-08 19:55:00,76.9,66.4,29.74,ESE,113,5.8,8.1,70,0.00,,,0.00,WUHU216HW,2013-04-08 16:55:00,
2013-04-08 20:00:00,76.7,66.2,29.74,East,90,3.8,6.9,70,0.00,,,0.00,WUHU216HW,2013-04-08 17:00:00,
2013-04-08 20:05:00,76.7,66.6,29.74,ESE,113,5.4,6.7,71,0.00,,,0.00,WUHU216HW,2013-04-08 17:05:00,
2013-04-08 20:10:00,76.7,66.6,29.75,ESE,113,4.0,6.9,71,0.00,,,0.00,WUHU216HW,2013-04-08 17:10:00,
2013-04-08 20:15:00,76.7,66.6,29.75,East,90,5.8,6.9,71,0.00,,,0.00,WUHU216HW,2013-04-08 17:15:00,
2013-04-08 20:20:00,76.7,66.2,29.75,ENE,68,5.1,8.5,70,0.00,,,0.00,WUHU216HW,2013-04-08 17:20:00,
2013-04-08 20:25:00,76.7,66.6,29.74,ENE,68,6.9,8.7,71,0.00,,,0.00,WUHU216HW,2013-04-08 17:25:00,
2013-04-08 20:30:00,76.7,66.6,29.75,East,90,5.1,8.7,71,0.00,,,0.00,WUHU216HW,2013-04-08 17:30:00,
2013-04-08 20:35:00,76.7,66.6,29.75,ESE,113,5.4,8.3,71,0.00,,,0.00,WUHU216HW,2013-04-08 17:35:00,
2013-04-08 20:40:00,76.7,66.6,29.75,ENE,68,5.4,7.6,71,0.00,,,0.00,WUHU216HW,2013-04-08 17:40:00,
2013-04-08 20:45:00,76.5,66.4,29.75,East,90,6.3,7.6,71,0.00,,,0.00,WUHU216HW,2013-04-08 17:45:00,
2013-04-08 20:51:00,76.5,66.4,29.75,ENE,68,6.5,8.5,71,0.00,,,0.00,WUHU216HW,2013-04-08 17:51:00,
2013-04-08 20:56:00,76.5,66.4,29.75,East,90,6.5,8.5,71,0.00,,,0.00,WUHU216HW,2013-04-08 17:56:00,
2013-04-08 21:01:00,76.5,66.4,29.75,ESE,113,6.7,8.9,71,0.00,,,0.00,WUHU216HW,2013-04-08 18:01:00,
2013-04-08 21:06:00,76.3,66.2,29.75,ESE,113,5.6,8.9,71,0.00,,,0.00,WUHU216HW,2013-04-08 18:06:00,
2013-04-08 21:11:00,76.3,66.2,29.75,ENE,68,4.7,8.3,71,0.00,,,0.00,WUHU216HW,2013-04-08 18:11:00,
2013-04-08 21:16:00,76.3,66.2,29.75,East,90,7.2,8.3,71,0.00,,,0.00,WUHU216HW,2013-04-08 18:16:00,
2013-04-08 21:21:00,76.1,65.7,29.75,East,90,4.7,7.6,70,0.00,,,0.00,WUHU216HW,2013-04-08 18:21:00,
2013-04-08 21:26:00,76.3,65.9,29.75,East,90,6.0,7.6,70,0.00,,,0.00,WUHU216HW,2013-04-08 18:26:00,
2013-04-08 21:31:00,76.3,65.9,29.75,ESE,113,6.5,7.6,70,0.00,,,0.00,WUHU216HW,2013-04-08 18:31:00,
2013-04-08 21:37:00,76.3,66.2,29.75,East,90,8.1,8.3,71,0.00,,,0.00,WUHU216HW,2013-04-08 18:37:00,
2013-04-08 21:42:00,76.1,65.7,29.75,East,90,7.2,8.5,70,0.00,,,0.00,WUHU216HW,2013-04-08 18:42:00,
2013-04-08 21:47:00,76.0,65.5,29.75,ENE,68,6.5,8.5,70,0.00,,,0.00,WUHU216HW,2013-04-08 18:47:00,
2013-04-08 21:52:00,76.0,65.1,29.75,East,90,5.6,8.3,69,0.00,,,0.00,WUHU216HW,2013-04-08 18:52:00,
2013-04-08 21:57:00,76.0,65.5,29.75,ENE,68,3.8,8.3,70,0.00,,,0.00,WUHU216HW,2013-04-08 18:57:00,
2013-04-08 22:02:00,76.0,65.1,29.74,NE,45,3.4,5.8,69,0.00,,,0.00,WUHU216HW,2013-04-08 19:02:00,
2013-04-08 22:07:00,76.0,65.1,29.75,SE,135,1.8,4.7,69,0.00,,,0.00,WUHU216HW,2013-04-08 19:07:00,
2013-04-08 22:12:00,76.0,65.1,29.75,ESE,113,2.5,4.0,69,0.00,,,0.00,WUHU216HW,2013-04-08 19:12:00,
2013-04-08 22:17:00,76.0,64.6,29.75,SE,135,2.2,4.3,68,0.00,,,0.00,WUHU216HW,2013-04-08 19:17:00,
2013-04-08 22:22:00,76.0,65.1,29.75,SE,135,3.8,4.3,69,0.00,,,0.00,WUHU216HW,2013-04-08 19:22:00,
2013-04-08 22:27:00,76.1,65.3,29.74,SE,135,2.5,4.0,69,0.00,,,0.00,WUHU216HW,2013-04-08 19:27:00,
2013-04-08 22:32:00,76.0,65.1,29.74,SE,135,3.1,4.3,69,0.00,,,0.00,WUHU216HW,2013-04-08 19:32:00,
2013-04-08 22:38:00,76.0,65.1,29.74,South,180,2.2,4.3,69,0.00,,,0.00,WUHU216HW,2013-04-08 19:38:00,
2013-04-08 22:43:00,76.0,65.1,29.74,SSE,158,2.5,3.6,69,0.00,,,0.00,WUHU216HW,2013-04-08 19:43:00,
2013-04-08 22:48:00,76.0,65.1,29.74,SSE,158,1.8,3.4,69,0.00,,,0.00,WUHU216HW,2013-04-08 19:48:00,
2013-04-08 22:53:00,76.0,64.6,29.74,SSE,158,2.5,3.4,68,0.00,,,0.00,WUHU216HW,2013-04-08 19:53:00,
2013-04-08 22:58:00,76.0,64.6,29.74,South,180,2.9,3.8,68,0.00,,,0.00,WUHU216HW,2013-04-08 19:58:00,
2013-04-08 23:03:00,75.8,64.4,29.73,SE,135,0.2,3.8,68,0.00,,,0.00,WUHU216HW,2013-04-08 20:03:00,
2013-04-08 23:08:00,75.8,64.4,29.73,SSE,158,1.3,2.9,68,0.00,,,0.00,WUHU216HW,2013-04-08 20:08:00,
2013-04-08 23:13:00,75.6,64.3,29.73,SSE,158,1.8,2.9,68,0.00,,,0.00,WUHU216HW,2013-04-08 20:13:00,
2013-04-08 23:18:00,75.6,64.3,29.73,SSW,203,1.3,2.9,68,0.00,,,0.00,WUHU216HW,2013-04-08 20:18:00,
2013-04-08 23:22:00,75.6,64.3,29.73,SSE,158,1.3,2.2,68,0.00,,,0.00,WUHU216HW,2013-04-08 20:22:00,
2013-04-08 23:28:00,75.6,64.7,29.73,SSE,158,0.9,2.2,69,0.00,,,0.00,WUHU216HW,2013-04-08 20:28:00,
2013-04-08 23:33:00,75.6,64.7,29.73,SE,135,1.6,2.2,69,0.00,,,0.00,WUHU216HW,2013-04-08 20:33:00,
2013-04-08 23:38:00,75.6,65.2,29.73,ESE,113,1.1,2.2,70,0.00,,,0.00,WUHU216HW,2013-04-08 20:38:00,
2013-04-08 23:43:00,75.6,64.7,29.73,SE,135,1.6,2.5,69,0.00,,,0.00,WUHU216HW,2013-04-08 20:43:00,
2013-04-08 23:48:00,75.6,64.7,29.73,SE,135,2.0,2.5,69,0.00,,,0.00,WUHU216HW,2013-04-08 20:48:00,
2013-04-08 23:53:00,75.6,64.7,29.72,SSW,203,0.4,2.5,69,0.00,,,0.00,WUHU216HW,2013-04-08 20:53:00,
2013-04-08 23:58:00,75.4,64.5,29.73,South,180,0.7,2.0,69,0.00,,,0.00,WUHU216HW,2013-04-08 20:58:00,